Time;durP1;ratioP1;P1;durP2;ratioP2;P2;SDS_P1;SDS_P2;PMS_P1;PMS_P2;Temp;Humidity;BMP_temperature;BMP_pressure;BME280_temperature;BME280_humidity;BME280_pressure;Samples;Min_cycle;Max_cycle;Signal;HPM_P1;HPM_P2
2023/06/13 00:01:14;;;;;;;7.38;4.47;;;;;;;;;;5094595;28;20047;-60
2023/06/13 00:03:48;;;;;;;6.53;4.40;;;;;;;;;;5095819;28;20047;-61
2023/06/13 00:06:15;;;;;;;5.13;4.45;;;;;;;;;;5095917;28;20054;-60
2023/06/13 00:08:42;;;;;;;6.47;4.70;;;;;;;;;;5097934;28;20051;-61
2023/06/13 00:11:09;;;;;;;6.68;4.15;;;;;;;;;;5116244;28;20047;-61
2023/06/13 00:13:36;;;;;;;6.57;4.75;;;;;;;;;;5116187;28;20070;-62
2023/06/13 00:16:03;;;;;;;5.93;4.95;;;;;;;;;;5115876;28;20488;-61
2023/06/13 00:18:30;;;;;;;4.82;4.35;;;;;;;;;;5115662;27;20059;-61
2023/06/13 00:20:59;;;;;;;6.40;4.53;;;;;;;;;;5115728;28;20455;-61
2023/06/13 00:23:26;;;;;;;5.63;4.90;;;;;;;;;;5100383;28;20382;-61
2023/06/13 00:25:54;;;;;;;7.78;4.90;;;;;;;;;;5095238;28;20063;-60
2023/06/13 00:28:22;;;;;;;6.47;4.53;;;;;;;;;;5095004;28;20417;-62
2023/06/13 00:30:49;;;;;;;5.97;4.63;;;;;;;;;;5094676;28;20059;-60
2023/06/13 00:33:17;;;;;;;6.18;4.45;;;;;;;;;;5095003;28;20059;-61
2023/06/13 00:35:44;;;;;;;7.78;4.50;;;;;;;;;;5095358;28;20052;-61
2023/06/13 00:38:12;;;;;;;7.70;5.13;;;;;;;;;;5094784;28;20044;-61
2023/06/13 00:40:39;;;;;;;6.05;4.88;;;;;;;;;;5095025;28;20052;-61
2023/06/13 00:43:06;;;;;;;8.38;5.15;;;;;;;;;;5095143;28;20075;-61
2023/06/13 00:45:33;;;;;;;7.70;5.28;;;;;;;;;;5095194;28;20059;-61
2023/06/13 00:48:01;;;;;;;7.05;5.00;;;;;;;;;;5095046;28;20051;-60
2023/06/13 00:50:30;;;;;;;5.82;4.47;;;;;;;;;;5094466;28;20448;-61
2023/06/13 00:52:58;;;;;;;6.88;4.78;;;;;;;;;;5102303;28;20047;-61
2023/06/13 00:55:27;;;;;;;6.03;4.95;;;;;;;;;;5115506;28;20048;-61
2023/06/13 00:57:55;;;;;;;5.68;4.88;;;;;;;;;;5113483;27;20056;-61
2023/06/13 01:00:26;;;;;;;9.32;5.40;;;;;;;;;;5109935;28;20062;-61
2023/06/13 01:02:58;;;;;;;8.20;5.40;;;;;;;;;;5094503;28;20063;-61
2023/06/13 01:05:28;;;;;;;6.10;4.97;;;;;;;;;;5095011;28;20052;-61
2023/06/13 01:07:57;;;;;;;8.43;5.22;;;;;;;;;;5095646;28;20055;-61
2023/06/13 01:10:24;;;;;;;;;;;;;;;;;;5095414;28;20052;-61
2023/06/13 01:13:00;;;;;;;7.00;5.57;;;;;;;;;;5094392;28;19920;-61
2023/06/13 01:15:30;;;;;;;7.28;5.57;;;;;;;;;;5094678;28;20054;-61
2023/06/13 01:17:58;;;;;;;6.38;5.38;;;;;;;;;;5094635;28;20047;-61
2023/06/13 01:20:26;;;;;;;6.85;5.05;;;;;;;;;;5094728;28;20059;-61
2023/06/13 01:22:56;;;;;;;7.20;5.20;;;;;;;;;;5093911;28;20063;-61
2023/06/13 01:25:37;;;;;;;6.53;5.20;;;;;;;;;;5094573;28;20060;-61
2023/06/13 01:28:06;;;;;;;5.72;5.15;;;;;;;;;;5093781;28;20416;-61
2023/06/13 01:30:34;;;;;;;7.80;5.43;;;;;;;;;;5093429;28;20059;-61
2023/06/13 01:33:05;;;;;;;5.95;5.35;;;;;;;;;;5094335;28;20055;-61
2023/06/13 01:35:32;;;;;;;5.47;4.88;;;;;;;;;;5094172;28;20055;-60
2023/06/13 01:37:59;;;;;;;6.82;5.28;;;;;;;;;;5092933;28;20521;-61
2023/06/13 01:40:26;;;;;;;7.25;5.57;;;;;;;;;;5094325;28;20052;-61
2023/06/13 01:42:52;;;;;;;5.97;5.30;;;;;;;;;;5094063;28;20055;-61
2023/06/13 01:45:21;;;;;;;7.20;5.43;;;;;;;;;;5094050;28;20416;-61
2023/06/13 01:47:55;;;;;;;6.97;5.43;;;;;;;;;;5094290;28;20495;-61
2023/06/13 01:50:26;;;;;;;5.78;5.15;;;;;;;;;;5093259;28;20075;-62
2023/06/13 01:52:55;;;;;;;9.38;5.53;;;;;;;;;;5092628;28;20055;-62
2023/06/13 01:55:23;;;;;;;7.22;6.00;;;;;;;;;;5093340;28;20044;-61
2023/06/13 01:57:55;;;;;;;9.00;5.78;;;;;;;;;;5093594;28;20052;-62
2023/06/13 02:00:24;;;;;;;8.02;5.60;;;;;;;;;;5094041;28;20048;-62
2023/06/13 02:02:51;;;;;;;7.60;5.55;;;;;;;;;;5093535;28;20059;-62
2023/06/13 02:05:19;;;;;;;8.57;5.32;;;;;;;;;;5093582;28;20059;-62
2023/06/13 02:07:46;;;;;;;7.85;5.78;;;;;;;;;;5092668;28;20063;-62
2023/06/13 02:10:16;;;;;;;7.22;4.95;;;;;;;;;;5093728;28;20499;-62
2023/06/13 02:12:43;;;;;;;5.95;5.32;;;;;;;;;;5093624;28;20413;-62
2023/06/13 02:15:10;;;;;;;6.38;5.40;;;;;;;;;;5093546;28;20055;-62
2023/06/13 02:17:42;;;;;;;5.95;5.13;;;;;;;;;;5093737;28;20052;-62
2023/06/13 02:20:09;;;;;;;8.13;5.82;;;;;;;;;;5093208;28;20059;-62
2023/06/13 02:22:36;;;;;;;8.02;5.00;;;;;;;;;;5098051;28;20056;-62
2023/06/13 02:25:04;;;;;;;10.38;6.13;;;;;;;;;;5114124;28;20056;-61
2023/06/13 02:27:31;;;;;;;6.97;5.38;;;;;;;;;;5113196;28;20044;-62
2023/06/13 02:29:58;;;;;;;8.05;5.95;;;;;;;;;;5113789;28;20051;-62
2023/06/13 02:32:28;;;;;;;6.75;5.78;;;;;;;;;;5113631;28;20055;-62
2023/06/13 02:34:56;;;;;;;5.80;5.30;;;;;;;;;;5113617;28;20492;-61
2023/06/13 02:37:23;;;;;;;6.70;5.72;;;;;;;;;;5104281;28;20075;-62
2023/06/13 02:39:50;;;;;;;6.45;5.78;;;;;;;;;;5092995;28;20059;-62
2023/06/13 02:42:17;;;;;;;6.93;6.22;;;;;;;;;;5093173;28;20481;-62
2023/06/13 02:44:44;;;;;;;10.00;6.53;;;;;;;;;;5092952;28;20056;-62
2023/06/13 02:47:11;;;;;;;8.80;6.82;;;;;;;;;;5092675;28;20075;-62
2023/06/13 02:49:37;;;;;;;7.10;5.93;;;;;;;;;;5092612;28;20055;-62
2023/06/13 02:52:07;;;;;;;7.28;5.93;;;;;;;;;;5091577;28;20044;-62
2023/06/13 02:54:33;;;;;;;6.93;5.65;;;;;;;;;;5092993;28;20059;-62
2023/06/13 02:57:00;;;;;;;6.95;6.00;;;;;;;;;;5092482;28;20508;-61
2023/06/13 02:59:29;;;;;;;8.80;6.32;;;;;;;;;;5092858;28;20055;-62
2023/06/13 03:01:56;;;;;;;8.75;6.10;;;;;;;;;;5092662;28;20051;-62
2023/06/13 03:04:24;;;;;;;9.52;6.53;;;;;;;;;;5092911;28;20055;-63
2023/06/13 03:06:51;;;;;;;6.43;5.80;;;;;;;;;;5092219;28;20056;-61
2023/06/13 03:09:19;;;;;;;9.15;6.35;;;;;;;;;;5092947;28;20079;-62
2023/06/13 03:11:46;;;;;;;9.95;6.55;;;;;;;;;;5092324;28;20048;-62
2023/06/13 03:14:13;;;;;;;9.40;6.18;;;;;;;;;;5092826;28;20059;-62
2023/06/13 03:16:40;;;;;;;7.85;5.93;;;;;;;;;;5092148;28;20079;-62
2023/06/13 03:19:07;;;;;;;8.60;7.03;;;;;;;;;;5092640;28;20056;-62
2023/06/13 03:21:34;;;;;;;7.75;6.82;;;;;;;;;;5091543;28;20055;-61
2023/06/13 03:24:00;;;;;;;8.52;6.70;;;;;;;;;;5092685;28;20515;-62
2023/06/13 03:26:38;;;;;;;10.02;7.18;;;;;;;;;;5092129;28;20056;-62
2023/06/13 03:29:04;;;;;;;16.08;8.02;;;;;;;;;;5092378;28;20063;-61
2023/06/13 03:31:31;;;;;;;8.63;6.15;;;;;;;;;;5092831;28;20051;-61
2023/06/13 03:33:58;;;;;;;9.45;6.53;;;;;;;;;;5096389;28;20055;-61
2023/06/13 03:36:26;;;;;;;7.15;6.22;;;;;;;;;;5095043;28;20051;-61
2023/06/13 03:38:53;;;;;;;7.40;5.90;;;;;;;;;;5096216;28;20075;-62
2023/06/13 03:41:20;;;;;;;7.07;5.97;;;;;;;;;;5096157;28;20056;-61
2023/06/13 03:43:48;;;;;;;10.18;6.95;;;;;;;;;;5096225;28;20048;-61
2023/06/13 03:46:15;;;;;;;9.05;6.55;;;;;;;;;;5096084;28;20075;-62
2023/06/13 03:48:42;;;;;;;8.93;6.53;;;;;;;;;;5095697;28;20067;-62
2023/06/13 03:51:08;;;;;;;8.15;6.28;;;;;;;;;;5095127;28;21445;-61
2023/06/13 03:53:35;;;;;;;9.18;6.28;;;;;;;;;;5095779;28;20389;-61
2023/06/13 03:56:02;;;;;;;8.05;6.65;;;;;;;;;;5096120;28;20052;-61
2023/06/13 03:58:32;;;;;;;7.40;6.13;;;;;;;;;;5095718;28;20051;-62
2023/06/13 04:01:00;;;;;;;9.30;6.35;;;;;;;;;;5095936;28;20052;-62
2023/06/13 04:03:29;;;;;;;8.43;6.18;;;;;;;;;;5095656;28;20056;-63
2023/06/13 04:05:56;;;;;;;8.30;5.80;;;;;;;;;;5093868;28;20476;-61
2023/06/13 04:08:23;;;;;;;7.30;5.88;;;;;;;;;;5095691;28;20059;-62
2023/06/13 04:10:49;;;;;;;8.50;6.20;;;;;;;;;;5095913;28;20054;-61
2023/06/13 04:13:16;;;;;;;8.02;6.00;;;;;;;;;;5095431;28;20052;-61
2023/06/13 04:15:43;;;;;;;8.05;6.70;;;;;;;;;;5095777;28;20059;-62
2023/06/13 04:18:11;;;;;;;7.60;6.13;;;;;;;;;;5095645;28;20059;-61
2023/06/13 04:20:38;;;;;;;9.25;6.43;;;;;;;;;;5094508;28;20047;-61
2023/06/13 04:23:05;;;;;;;8.43;6.13;;;;;;;;;;5095325;28;20059;-62
2023/06/13 04:25:32;;;;;;;9.48;6.32;;;;;;;;;;5095347;28;20052;-61
2023/06/13 04:28:00;;;;;;;10.23;6.70;;;;;;;;;;5095204;28;20508;-61
2023/06/13 04:30:28;;;;;;;11.50;7.65;;;;;;;;;;5095903;28;20052;-61
2023/06/13 04:32:56;;;;;;;8.18;6.88;;;;;;;;;;5095496;28;20066;-62
2023/06/13 04:35:25;;;;;;;8.98;7.30;;;;;;;;;;5094801;28;20476;-61
2023/06/13 04:37:52;;;;;;;7.65;6.07;;;;;;;;;;5093700;28;20048;-62
2023/06/13 04:40:19;;;;;;;10.32;7.03;;;;;;;;;;5098376;28;20487;-61
2023/06/13 04:42:47;;;;;;;7.60;6.82;;;;;;;;;;5093080;28;20056;-62
2023/06/13 04:45:15;;;;;;;8.65;6.72;;;;;;;;;;5095389;28;20063;-62
2023/06/13 04:47:45;;;;;;;10.98;7.35;;;;;;;;;;5095081;28;20052;-62
2023/06/13 04:50:12;;;;;;;10.02;7.45;;;;;;;;;;5094340;28;20052;-62
2023/06/13 04:52:41;;;;;;;11.88;6.97;;;;;;;;;;5096215;28;20052;-62
2023/06/13 04:55:08;;;;;;;8.77;6.73;;;;;;;;;;5094763;28;20052;-62
2023/06/13 04:57:35;;;;;;;7.40;6.63;;;;;;;;;;5094865;28;20051;-60
2023/06/13 05:00:03;;;;;;;22.23;7.18;;;;;;;;;;5094900;28;20059;-60
2023/06/13 05:02:30;;;;;;;15.05;7.65;;;;;;;;;;5094711;28;20405;-62
2023/06/13 05:04:57;;;;;;;13.18;6.93;;;;;;;;;;5094607;28;20384;-60
2023/06/13 05:07:24;;;;;;;11.05;7.05;;;;;;;;;;5093368;28;20048;-60
2023/06/13 05:09:52;;;;;;;11.55;7.60;;;;;;;;;;5094785;28;20056;-60
2023/06/13 05:12:19;;;;;;;15.75;7.63;;;;;;;;;;5094718;28;20052;-61
2023/06/13 05:14:46;;;;;;;13.07;7.07;;;;;;;;;;5094627;28;20063;-60
2023/06/13 05:17:14;;;;;;;11.07;7.60;;;;;;;;;;5094589;28;20059;-61
2023/06/13 05:19:41;;;;;;;11.90;7.22;;;;;;;;;;5094657;28;20052;-61
2023/06/13 05:22:08;;;;;;;8.35;5.72;;;;;;;;;;5093082;28;20059;-62
2023/06/13 05:24:35;;;;;;;15.45;7.05;;;;;;;;;;5094284;28;20408;-61
2023/06/13 05:27:03;;;;;;;20.73;8.90;;;;;;;;;;5089074;28;20052;-61
2023/06/13 05:29:30;;;;;;;14.15;7.63;;;;;;;;;;5090916;28;20048;-61
2023/06/13 05:31:57;;;;;;;7.95;5.93;;;;;;;;;;5093051;28;20048;-61
2023/06/13 05:34:25;;;;;;;8.20;6.43;;;;;;;;;;5090859;28;20392;-61
2023/06/13 05:36:52;;;;;;;7.85;6.22;;;;;;;;;;5087378;28;20044;-61
2023/06/13 05:39:19;;;;;;;10.07;6.30;;;;;;;;;;5088625;28;20052;-62
2023/06/13 05:41:46;;;;;;;9.20;5.97;;;;;;;;;;5090800;28;20052;-60
2023/06/13 05:44:14;;;;;;;7.07;5.85;;;;;;;;;;5090955;28;20052;-61
2023/06/13 05:46:41;;;;;;;9.27;6.68;;;;;;;;;;5088783;28;20071;-61
2023/06/13 05:49:08;;;;;;;9.50;5.72;;;;;;;;;;5091652;28;20048;-61
2023/06/13 05:51:36;;;;;;;11.80;6.10;;;;;;;;;;5088400;28;20051;-62
2023/06/13 05:54:03;;;;;;;8.32;6.18;;;;;;;;;;5089126;28;20056;-62
2023/06/13 05:56:31;;;;;;;14.30;6.10;;;;;;;;;;5089179;28;20047;-61
2023/06/13 05:58:58;;;;;;;9.55;5.55;;;;;;;;;;5091635;28;20048;-62
2023/06/13 06:01:29;;;;;;;6.88;5.63;;;;;;;;;;5090907;28;20052;-61
2023/06/13 06:03:56;;;;;;;7.45;5.20;;;;;;;;;;5090507;28;20056;-62
2023/06/13 06:06:23;;;;;;;7.65;5.10;;;;;;;;;;5090967;28;20055;-62
2023/06/13 06:08:50;;;;;;;8.65;5.82;;;;;;;;;;5086367;28;20048;-63
2023/06/13 06:11:16;;;;;;;9.98;6.35;;;;;;;;;;5085958;28;20497;-62
2023/06/13 06:13:43;;;;;;;7.22;5.20;;;;;;;;;;5089245;28;20051;-61
2023/06/13 06:16:10;;;;;;;7.05;5.28;;;;;;;;;;5092047;28;20063;-62
2023/06/13 06:18:39;;;;;;;7.85;5.63;;;;;;;;;;5093515;28;20055;-62
2023/06/13 06:21:06;;;;;;;6.30;4.90;;;;;;;;;;5093571;28;20058;-61
2023/06/13 06:23:33;;;;;;;6.95;5.00;;;;;;;;;;5090777;28;20059;-61
2023/06/13 06:26:00;;;;;;;6.63;5.30;;;;;;;;;;5091830;28;20055;-62
2023/06/13 06:28:27;;;;;;;6.72;5.18;;;;;;;;;;5093202;28;20062;-61
2023/06/13 06:30:53;;;;;;;8.25;5.05;;;;;;;;;;5093245;28;20381;-61
2023/06/13 06:33:21;;;;;;;5.75;4.72;;;;;;;;;;5093012;28;20052;-62
2023/06/13 06:35:49;;;;;;;5.60;4.68;;;;;;;;;;5092418;28;20060;-62
2023/06/13 06:38:16;;;;;;;6.50;4.95;;;;;;;;;;5092632;28;20081;-62
2023/06/13 06:40:43;;;;;;;8.02;5.00;;;;;;;;;;5092909;28;20060;-62
2023/06/13 06:43:09;;;;;;;6.18;4.90;;;;;;;;;;5093242;28;20059;-63
2023/06/13 06:45:36;;;;;;;5.53;4.45;;;;;;;;;;5093286;28;20059;-61
2023/06/13 06:48:03;;;;;;;7.10;4.80;;;;;;;;;;5092811;28;20059;-61
2023/06/13 06:50:30;;;;;;;8.93;4.70;;;;;;;;;;5090454;28;20504;-62
2023/06/13 06:52:58;;;;;;;5.25;4.70;;;;;;;;;;5092991;28;20063;-62
2023/06/13 06:55:25;;;;;;;6.80;4.90;;;;;;;;;;5093068;28;20058;-62
2023/06/13 06:57:53;;;;;;;7.43;4.53;;;;;;;;;;5093059;28;20052;-62
2023/06/13 07:00:20;;;;;;;6.65;4.60;;;;;;;;;;5091443;28;20063;-63
2023/06/13 07:02:47;;;;;;;7.07;4.78;;;;;;;;;;5086079;28;20048;-61
2023/06/13 07:05:15;;;;;;;7.90;5.00;;;;;;;;;;5093185;28;20118;-62
2023/06/13 07:07:43;;;;;;;13.03;5.17;;;;;;;;;;5097000;28;20056;-62
2023/06/13 07:10:12;;;;;;;8.00;4.03;;;;;;;;;;5097328;28;20051;-62
2023/06/13 07:12:39;;;;;;;7.00;4.63;;;;;;;;;;5097040;28;20052;-62
2023/06/13 07:15:06;;;;;;;7.57;5.18;;;;;;;;;;5096613;28;20048;-62
2023/06/13 07:17:33;;;;;;;6.90;4.50;;;;;;;;;;5097151;28;20063;-61
2023/06/13 07:20:01;;;;;;;6.60;4.50;;;;;;;;;;5096370;28;20048;-62
2023/06/13 07:22:28;;;;;;;6.03;4.20;;;;;;;;;;5097122;28;20056;-62
2023/06/13 07:24:54;;;;;;;6.40;4.30;;;;;;;;;;5096772;28;20056;-61
2023/06/13 07:27:23;;;;;;;6.18;4.72;;;;;;;;;;5096945;28;20050;-62
2023/06/13 07:29:50;;;;;;;6.50;4.03;;;;;;;;;;5097075;28;20471;-62
2023/06/13 07:32:16;;;;;;;7.25;4.75;;;;;;;;;;5096703;28;20043;-61
2023/06/13 07:34:44;;;;;;;7.18;4.32;;;;;;;;;;5107799;28;20063;-62
2023/06/13 07:37:11;;;;;;;7.15;4.47;;;;;;;;;;5098162;28;20052;-61
2023/06/13 07:39:38;;;;;;;5.68;4.03;;;;;;;;;;5096496;28;20055;-63
2023/06/13 07:42:06;;;;;;;6.75;4.20;;;;;;;;;;5096407;28;20048;-62
2023/06/13 07:44:35;;;;;;;5.55;4.32;;;;;;;;;;5102807;28;20056;-61
2023/06/13 07:47:02;;;;;;;5.35;4.32;;;;;;;;;;5098686;28;20389;-62
2023/06/13 07:49:30;;;;;;;6.00;4.22;;;;;;;;;;5097832;28;20044;-62
2023/06/13 07:51:57;;;;;;;7.07;4.00;;;;;;;;;;5094506;28;20048;-63
2023/06/13 07:54:24;;;;;;;5.05;4.00;;;;;;;;;;5095807;28;20481;-62
2023/06/13 07:56:52;;;;;;;6.82;4.68;;;;;;;;;;5096328;28;20056;-62
2023/06/13 07:59:18;;;;;;;9.10;4.40;;;;;;;;;;5096131;28;20397;-62
2023/06/13 08:01:47;;;;;;;5.40;4.35;;;;;;;;;;5095907;28;20063;-62
2023/06/13 08:04:14;;;;;;;6.03;4.37;;;;;;;;;;5095369;28;20063;-62
2023/06/13 08:06:41;;;;;;;9.38;4.50;;;;;;;;;;5095609;28;20052;-62
2023/06/13 08:09:09;;;;;;;6.18;4.13;;;;;;;;;;5095795;28;20048;-62
2023/06/13 08:11:35;;;;;;;6.50;4.55;;;;;;;;;;5095991;28;20055;-63
2023/06/13 08:14:02;;;;;;;5.63;3.88;;;;;;;;;;5095717;28;20051;-63
2023/06/13 08:16:29;;;;;;;5.63;3.95;;;;;;;;;;5080465;28;20512;-63
2023/06/13 08:18:57;;;;;;;6.50;4.78;;;;;;;;;;5078852;28;20071;-62
2023/06/13 08:21:24;;;;;;;5.10;3.83;;;;;;;;;;5095384;28;20067;-62
2023/06/13 08:23:55;;;;;;;5.55;3.50;;;;;;;;;;5095463;28;20059;-62
2023/06/13 08:26:22;;;;;;;5.93;4.65;;;;;;;;;;5095283;28;20052;-63
2023/06/13 08:28:49;;;;;;;5.75;3.88;;;;;;;;;;5095459;28;20052;-63
2023/06/13 08:31:17;;;;;;;6.38;4.00;;;;;;;;;;5095437;28;20404;-62
2023/06/13 08:33:44;;;;;;;6.20;3.90;;;;;;;;;;5094952;28;20060;-63
2023/06/13 08:36:12;;;;;;;4.82;3.70;;;;;;;;;;5094467;28;20055;-63
2023/06/13 08:38:38;;;;;;;5.20;3.53;;;;;;;;;;5095448;28;20052;-64
2023/06/13 08:41:05;;;;;;;27.75;7.03;;;;;;;;;;5095446;28;20055;-64
2023/06/13 08:43:32;;;;;;;7.40;4.57;;;;;;;;;;5094393;28;20051;-63
2023/06/13 08:45:59;;;;;;;6.30;3.85;;;;;;;;;;5095394;28;20052;-63
2023/06/13 08:48:27;;;;;;;5.32;3.60;;;;;;;;;;5094989;28;20059;-63
2023/06/13 08:50:55;;;;;;;4.65;3.95;;;;;;;;;;5094310;28;20078;-64
2023/06/13 08:53:24;;;;;;;6.05;3.38;;;;;;;;;;5094383;28;20075;-64
2023/06/13 08:55:51;;;;;;;3.70;3.25;;;;;;;;;;5094405;28;20052;-62
2023/06/13 08:58:19;;;;;;;4.10;3.30;;;;;;;;;;5094991;28;20052;-63
2023/06/13 09:00:47;;;;;;;4.38;3.03;;;;;;;;;;5094815;28;20052;-63
2023/06/13 09:03:14;;;;;;;;;;;;;;;;;;5092666;28;20056;-63
2023/06/13 09:05:41;;;;;;;5.10;3.45;;;;;;;;;;5096431;28;19920;-63
2023/06/13 09:08:08;;;;;;;4.70;3.60;;;;;;;;;;5094340;28;20048;-62
2023/06/13 09:10:36;;;;;;;3.70;3.40;;;;;;;;;;5094134;28;20850;-63
2023/06/13 09:13:03;;;;;;;3.20;2.90;;;;;;;;;;5094815;28;20409;-63
2023/06/13 09:15:30;;;;;;;4.30;3.10;;;;;;;;;;5094851;28;20052;-63
2023/06/13 09:17:57;;;;;;;5.78;3.47;;;;;;;;;;5094205;28;20048;-63
2023/06/13 09:20:25;;;;;;;3.92;3.47;;;;;;;;;;5093565;28;20048;-62
2023/06/13 09:22:52;;;;;;;3.60;3.30;;;;;;;;;;5094338;28;20059;-63
2023/06/13 09:25:21;;;;;;;3.60;3.30;;;;;;;;;;5094666;28;20055;-63
2023/06/13 09:27:49;;;;;;;5.15;3.28;;;;;;;;;;5094191;28;20052;-63
2023/06/13 09:30:16;;;;;;;4.43;3.63;;;;;;;;;;5093431;28;20059;-63
2023/06/13 09:32:44;;;;;;;4.32;3.47;;;;;;;;;;5092515;28;20070;-63
2023/06/13 09:35:11;;;;;;;4.75;3.05;;;;;;;;;;5093753;28;20056;-63
2023/06/13 09:37:38;;;;;;;4.07;3.50;;;;;;;;;;5094456;28;20052;-62
2023/06/13 09:40:08;;;;;;;4.93;3.58;;;;;;;;;;5094274;28;20051;-63
2023/06/13 09:42:35;;;;;;;3.90;3.40;;;;;;;;;;5093695;28;20052;-63
2023/06/13 09:45:06;;;;;;;3.80;3.40;;;;;;;;;;5094489;28;20056;-63
2023/06/13 09:47:34;;;;;;;7.82;3.78;;;;;;;;;;5091125;28;20048;-63
2023/06/13 09:50:02;;;;;;;5.25;3.40;;;;;;;;;;5093315;28;20052;-63
2023/06/13 09:52:30;;;;;;;;;;;;;;;;;;5094645;28;20511;-62
2023/06/13 09:54:57;;;;;;;4.75;3.28;;;;;;;;;;5093978;28;19920;-63
2023/06/13 09:57:24;;;;;;;5.32;3.47;;;;;;;;;;5093645;28;20052;-63
2023/06/13 09:59:51;;;;;;;4.63;3.50;;;;;;;;;;5093979;28;20048;-63
2023/06/13 10:02:20;;;;;;;3.70;3.38;;;;;;;;;;5093979;28;20477;-63
2023/06/13 10:04:50;;;;;;;4.90;3.58;;;;;;;;;;5091792;28;20418;-62
2023/06/13 10:07:16;;;;;;;4.85;3.17;;;;;;;;;;5091526;28;20056;-63
2023/06/13 10:09:43;;;;;;;4.72;3.42;;;;;;;;;;5093832;28;20480;-63
2023/06/13 10:12:15;;;;;;;4.47;3.25;;;;;;;;;;5093731;28;20059;-62
2023/06/13 10:14:43;;;;;;;6.20;3.40;;;;;;;;;;5093710;28;20056;-62
2023/06/13 10:17:11;;;;;;;4.07;3.35;;;;;;;;;;5093132;28;20055;-62
2023/06/13 10:19:40;;;;;;;7.25;3.15;;;;;;;;;;5093195;28;20048;-63
2023/06/13 10:22:08;;;;;;;3.72;2.92;;;;;;;;;;5092234;28;20522;-63
2023/06/13 10:24:36;;;;;;;4.85;3.80;;;;;;;;;;5092635;28;20508;-62
2023/06/13 10:27:02;;;;;;;;;;;;;;;;;;5093617;28;20056;-64
2023/06/13 10:29:47;;;;;;;3.50;3.20;;;;;;;;;;5093442;28;19920;-63
2023/06/13 10:32:24;;;;;;;3.55;3.25;;;;;;;;;;5092969;28;20047;-63
2023/06/13 10:35:01;;;;;;;3.35;3.05;;;;;;;;;;5092725;28;20056;-64
2023/06/13 10:37:38;;;;;;;4.70;3.55;;;;;;;;;;5092752;28;20412;-62
2023/06/13 10:40:21;;;;;;;7.97;3.47;;;;;;;;;;5092014;28;20055;-63
2023/06/13 10:42:52;;;;;;;3.70;3.28;;;;;;;;;;5092781;28;20063;-61
2023/06/13 10:45:21;;;;;;;4.22;2.80;;;;;;;;;;5092722;28;20056;-62
2023/06/13 10:47:48;;;;;;;4.38;3.30;;;;;;;;;;5091554;28;20511;-62
2023/06/13 10:50:17;;;;;;;3.78;3.47;;;;;;;;;;5092036;28;20056;-62
2023/06/13 10:52:46;;;;;;;4.38;3.38;;;;;;;;;;5092430;28;20105;-63
2023/06/13 10:55:22;;;;;;;6.15;3.03;;;;;;;;;;5093017;28;20401;-63
2023/06/13 10:57:49;;;;;;;5.40;3.45;;;;;;;;;;5092627;28;20408;-62
2023/06/13 11:00:23;;;;;;;4.55;3.60;;;;;;;;;;5110929;28;20484;-63
2023/06/13 11:02:51;;;;;;;3.70;2.85;;;;;;;;;;5113052;28;20074;-63
2023/06/13 11:05:19;;;;;;;5.55;3.75;;;;;;;;;;5111390;28;20051;-64
2023/06/13 11:07:47;;;;;;;5.07;2.70;;;;;;;;;;5112461;28;20058;-63
2023/06/13 11:10:15;;;;;;;3.83;3.30;;;;;;;;;;5112952;28;20476;-63
2023/06/13 11:12:42;;;;;;;3.88;3.28;;;;;;;;;;5112608;28;20052;-63
2023/06/13 11:15:20;;;;;;;4.32;3.20;;;;;;;;;;5112999;28;20048;-63
2023/06/13 11:18:01;;;;;;;5.25;3.35;;;;;;;;;;5112789;28;20055;-63
2023/06/13 11:20:31;;;;;;;4.25;3.40;;;;;;;;;;5112955;28;20404;-63
2023/06/13 11:22:58;;;;;;;3.97;3.00;;;;;;;;;;5112622;28;20055;-63
2023/06/13 11:25:25;;;;;;;4.43;3.00;;;;;;;;;;5117941;28;20047;-63
2023/06/13 11:27:51;;;;;;;3.70;3.40;;;;;;;;;;5112645;28;20047;-63
2023/06/13 11:30:19;;;;;;;3.55;3.25;;;;;;;;;;5113257;28;20044;-64
2023/06/13 11:32:45;;;;;;;5.10;3.20;;;;;;;;;;5112775;28;20059;-63
2023/06/13 11:35:13;;;;;;;4.70;2.92;;;;;;;;;;5111723;28;20055;-63
2023/06/13 11:37:46;;;;;;;3.65;3.10;;;;;;;;;;5092756;28;20052;-63
2023/06/13 11:40:16;;;;;;;3.90;3.08;;;;;;;;;;5109623;28;20050;-64
2023/06/13 11:42:43;;;;;;;4.53;2.97;;;;;;;;;;5133253;28;20055;-63
2023/06/13 11:45:10;;;;;;;3.55;3.25;;;;;;;;;;5133358;28;20055;-63
2023/06/13 11:47:36;;;;;;;3.70;3.08;;;;;;;;;;5132899;28;20059;-63
2023/06/13 11:50:03;;;;;;;5.95;3.47;;;;;;;;;;5128785;28;20073;-63
2023/06/13 11:52:31;;;;;;;3.63;2.95;;;;;;;;;;5113083;28;20410;-63
2023/06/13 11:54:59;;;;;;;5.15;3.10;;;;;;;;;;5117142;28;20047;-63
2023/06/13 11:57:41;;;;;;;3.78;3.22;;;;;;;;;;5116235;28;20060;-64
2023/06/13 12:00:09;;;;;;;4.45;3.63;;;;;;;;;;5116115;28;20056;-63
2023/06/13 12:02:36;;;;;;;3.58;2.90;;;;;;;;;;5112213;28;20063;-64
2023/06/13 12:05:04;;;;;;;5.40;3.17;;;;;;;;;;5115573;27;20074;-63
2023/06/13 12:07:33;;;;;;;3.85;3.00;;;;;;;;;;5116275;28;20059;-64
2023/06/13 12:10:02;;;;;;;3.28;2.97;;;;;;;;;;5115576;28;20058;-63
2023/06/13 12:12:29;;;;;;;5.82;2.90;;;;;;;;;;5116277;28;20048;-64
2023/06/13 12:14:56;;;;;;;5.00;3.25;;;;;;;;;;5116010;28;20059;-63
2023/06/13 12:17:23;;;;;;;4.72;2.97;;;;;;;;;;5115672;28;20052;-64
2023/06/13 12:19:50;;;;;;;5.68;3.30;;;;;;;;;;5115378;27;20055;-63
2023/06/13 12:22:16;;;;;;;3.72;2.97;;;;;;;;;;5113792;27;20415;-63
2023/06/13 12:24:43;;;;;;;3.45;3.03;;;;;;;;;;5115489;28;20070;-64
2023/06/13 12:27:12;;;;;;;4.80;3.03;;;;;;;;;;5116574;28;20052;-64
2023/06/13 12:29:39;;;;;;;3.70;3.33;;;;;;;;;;5116143;28;20052;-64
2023/06/13 12:32:07;;;;;;;4.82;2.90;;;;;;;;;;5116435;28;20055;-63
2023/06/13 12:34:34;;;;;;;3.15;2.50;;;;;;;;;;5115864;28;20055;-63
2023/06/13 12:37:04;;;;;;;3.45;2.90;;;;;;;;;;5114110;27;20052;-64
2023/06/13 12:39:31;;;;;;;4.55;2.90;;;;;;;;;;5115626;28;20055;-64
2023/06/13 12:42:00;;;;;;;4.85;2.97;;;;;;;;;;5115399;28;20480;-63
2023/06/13 12:44:30;;;;;;;3.67;2.92;;;;;;;;;;5114601;28;20392;-63
2023/06/13 12:46:58;;;;;;;3.78;3.25;;;;;;;;;;5115666;28;20059;-63
2023/06/13 12:49:25;;;;;;;6.05;5.00;;;;;;;;;;5115318;28;20062;-63
2023/06/13 12:51:53;;;;;;;3.95;3.08;;;;;;;;;;5115316;27;20066;-62
2023/06/13 12:54:20;;;;;;;9.77;2.92;;;;;;;;;;5115203;28;20062;-63
2023/06/13 12:56:54;;;;;;;4.05;2.90;;;;;;;;;;5114778;28;20067;-63
2023/06/13 12:59:30;;;;;;;4.15;2.83;;;;;;;;;;5114882;28;20062;-63
2023/06/13 13:01:57;;;;;;;3.45;2.85;;;;;;;;;;5113416;27;20067;-62
2023/06/13 13:04:28;;;;;;;3.97;3.03;;;;;;;;;;5114945;28;20394;-62
2023/06/13 13:06:56;;;;;;;4.47;3.10;;;;;;;;;;5114944;27;20485;-64
2023/06/13 13:09:23;;;;;;;5.47;3.10;;;;;;;;;;5115119;28;20063;-63
2023/06/13 13:11:49;;;;;;;3.87;2.97;;;;;;;;;;5115099;28;20054;-63
2023/06/13 13:14:16;;;;;;;3.83;2.90;;;;;;;;;;5115228;28;20044;-63
2023/06/13 13:16:45;;;;;;;3.42;3.13;;;;;;;;;;5115252;28;20523;-63
2023/06/13 13:19:12;;;;;;;4.50;3.20;;;;;;;;;;5114888;28;20056;-63
2023/06/13 13:21:39;;;;;;;5.03;3.40;;;;;;;;;;5113966;27;20048;-63
2023/06/13 13:24:06;;;;;;;3.45;3.13;;;;;;;;;;5114696;28;20058;-64
2023/06/13 13:26:33;;;;;;;7.05;3.40;;;;;;;;;;5114104;28;20056;-63
2023/06/13 13:29:00;;;;;;;5.07;3.00;;;;;;;;;;5114384;28;20059;-63
2023/06/13 13:31:27;;;;;;;4.63;2.93;;;;;;;;;;5113464;28;20059;-63
2023/06/13 13:33:55;;;;;;;5.20;2.80;;;;;;;;;;5114343;28;20496;-63
2023/06/13 13:36:22;;;;;;;4.18;3.10;;;;;;;;;;5113154;27;20048;-63
2023/06/13 13:38:49;;;;;;;4.72;3.33;;;;;;;;;;5115712;27;20056;-62
2023/06/13 13:41:16;;;;;;;3.72;3.10;;;;;;;;;;5114442;28;20052;-61
2023/06/13 13:43:43;;;;;;;4.72;2.92;;;;;;;;;;5114583;28;20055;-62
2023/06/13 13:46:10;;;;;;;4.18;3.47;;;;;;;;;;5116058;28;20044;-62
2023/06/13 13:48:38;;;;;;;4.20;3.00;;;;;;;;;;5110734;28;20067;-62
2023/06/13 13:51:06;;;;;;;3.45;3.15;;;;;;;;;;5093573;28;20051;-62
2023/06/13 13:53:34;;;;;;;4.30;3.05;;;;;;;;;;5092819;28;20063;-62
2023/06/13 13:56:01;;;;;;;3.88;3.58;;;;;;;;;;5093319;28;20507;-62
2023/06/13 13:58:28;;;;;;;4.03;3.13;;;;;;;;;;5093487;28;20055;-61
2023/06/13 14:00:55;;;;;;;4.68;3.50;;;;;;;;;;5093138;28;20052;-61
2023/06/13 14:03:22;;;;;;;4.23;3.20;;;;;;;;;;5092512;28;20048;-61
2023/06/13 14:05:50;;;;;;;4.43;3.10;;;;;;;;;;5093314;28;20063;-61
2023/06/13 14:08:17;;;;;;;;;;;;;;;;;;5093857;28;20060;-62
2023/06/13 14:10:45;;;;;;;3.30;3.00;;;;;;;;;;5093395;28;20365;-62
2023/06/13 14:13:12;;;;;;;;;;;;;;;;;;5092832;28;20440;-61
2023/06/13 14:15:39;;;;;;;3.33;3.00;;;;;;;;;;5093113;28;20381;-61
2023/06/13 14:18:06;;;;;;;3.33;3.00;;;;;;;;;;5093193;28;20064;-63
2023/06/13 14:20:33;;;;;;;3.90;3.50;;;;;;;;;;5093161;28;20048;-62
2023/06/13 14:23:00;;;;;;;5.03;3.22;;;;;;;;;;5093984;28;20055;-64
2023/06/13 14:25:26;;;;;;;4.13;3.08;;;;;;;;;;5092437;28;20056;-64
2023/06/13 14:27:55;;;;;;;3.55;3.25;;;;;;;;;;5072835;28;20435;-63
2023/06/13 14:30:21;;;;;;;5.10;3.22;;;;;;;;;;5072410;28;20048;-64
2023/06/13 14:32:48;;;;;;;5.03;2.88;;;;;;;;;;5072600;28;20060;-63
2023/06/13 14:35:16;;;;;;;5.20;3.13;;;;;;;;;;5072963;28;20059;-64
2023/06/13 14:37:42;;;;;;;3.70;3.15;;;;;;;;;;5090896;28;20052;-64
2023/06/13 14:40:10;;;;;;;4.25;3.15;;;;;;;;;;5091949;28;20492;-64
2023/06/13 14:42:36;;;;;;;4.78;3.30;;;;;;;;;;5092136;28;20052;-64
2023/06/13 14:45:05;;;;;;;4.28;3.10;;;;;;;;;;5092541;28;20378;-64
2023/06/13 14:47:34;;;;;;;4.05;3.65;;;;;;;;;;5092950;28;20059;-64